createdAt,value
2018-12-12T00:00:36.910Z,10.92
2018-12-12T00:05:46.019Z,12.02
2018-12-12T00:10:55.413Z,13.06
2018-12-12T00:16:04.535Z,12.96
2018-12-12T00:21:13.901Z,10.93
2018-12-12T00:26:23.000Z,12.74
2018-12-12T00:31:32.377Z,11.52
2018-12-12T00:36:41.467Z,11.94
2018-12-12T00:41:50.812Z,13.76
2018-12-12T00:46:59.985Z,13.68
2018-12-12T00:52:09.291Z,12.52
2018-12-12T00:57:18.415Z,10.48
2018-12-12T01:02:27.764Z,9.54
2018-12-12T01:07:36.824Z,11.96
2018-12-12T01:12:46.309Z,11.24
2018-12-12T01:17:55.494Z,13.52
2018-12-12T01:23:04.819Z,12.01
2018-12-12T01:28:13.880Z,12.29
2018-12-12T01:33:23.258Z,14.12
2018-12-12T01:38:32.377Z,11.74
2018-12-12T01:43:41.703Z,12.15
2018-12-12T01:48:50.872Z,13.32
2018-12-12T01:54:00.141Z,16.32
2018-12-12T01:59:09.219Z,15.23
2018-12-12T02:04:18.513Z,12.91
2018-12-12T02:09:27.585Z,13.03
2018-12-12T02:14:36.957Z,11.69
2018-12-12T02:19:46.035Z,13.41
2018-12-12T02:24:55.446Z,12.17
2018-12-12T02:30:04.541Z,12.79
2018-12-12T02:35:13.819Z,13.49
2018-12-12T02:40:22.951Z,12.04
2018-12-12T02:45:32.224Z,14.19
2018-12-12T02:50:41.341Z,12.41
2018-12-12T02:55:50.731Z,13.63
2018-12-12T03:01:00.013Z,12.90
2018-12-12T03:06:09.446Z,13.96
2018-12-12T03:11:18.683Z,13.80
2018-12-12T03:16:28.021Z,14.78
2018-12-12T03:21:37.106Z,12.47
2018-12-12T03:26:46.414Z,15.10
2018-12-12T03:31:55.578Z,13.74
2018-12-12T03:37:04.946Z,13.20
2018-12-12T03:42:14.051Z,13.31
2018-12-12T03:47:23.305Z,11.25
2018-12-12T03:52:32.381Z,12.46
2018-12-12T03:57:41.755Z,13.13
2018-12-12T04:02:50.953Z,14.92
2018-12-12T04:08:00.437Z,11.69
2018-12-12T04:13:09.558Z,12.52
2018-12-12T04:18:18.920Z,9.89
2018-12-12T04:23:27.987Z,12.69
2018-12-12T04:28:37.524Z,13.07
2018-12-12T04:33:46.626Z,11.44
2018-12-12T04:38:56.008Z,11.00
2018-12-12T04:44:05.208Z,15.90
2018-12-12T04:49:14.593Z,15.81
2018-12-12T04:54:23.697Z,13.32
2018-12-12T04:59:34.973Z,13.49
2018-12-12T05:04:34.052Z,12.27
2018-12-12T05:09:43.317Z,13.17
2018-12-12T05:14:52.396Z,13.98
2018-12-12T05:20:01.726Z,14.77
2018-12-12T05:25:10.834Z,15.47
2018-12-12T05:30:20.364Z,15.64
2018-12-12T05:35:29.476Z,16.33
2018-12-12T05:40:38.837Z,18.61
2018-12-12T05:45:47.945Z,20.90
2018-12-12T05:50:57.193Z,23.43
2018-12-12T05:56:06.297Z,21.30
2018-12-12T06:01:15.705Z,17.31
2018-12-12T06:06:24.785Z,15.38
2018-12-12T06:11:34.160Z,16.22
2018-12-12T06:16:43.273Z,13.24
2018-12-12T06:21:52.612Z,14.14
2018-12-12T06:27:01.689Z,13.83
2018-12-12T06:32:11.014Z,13.47
2018-12-12T06:37:20.263Z,14.33
2018-12-12T06:42:29.756Z,13.58
2018-12-12T06:47:38.836Z,17.08
2018-12-12T06:52:48.377Z,16.02
2018-12-12T06:57:57.545Z,15.79
2018-12-12T07:03:06.823Z,17.17
2018-12-12T07:08:15.972Z,21.97
2018-12-12T07:13:25.439Z,17.61
2018-12-12T07:18:34.677Z,14.49
2018-12-12T07:23:44.061Z,15.57
2018-12-12T07:28:53.170Z,13.97
2018-12-12T07:34:02.545Z,12.46
2018-12-12T07:39:17.735Z,13.46
2018-12-12T07:44:20.537Z,14.35
2018-12-12T07:49:29.696Z,12.68
2018-12-12T07:54:38.927Z,15.08
2018-12-12T07:59:48.050Z,17.97
2018-12-12T08:04:57.456Z,17.87
2018-12-12T08:10:06.561Z,16.01
2018-12-12T08:15:15.966Z,17.11
2018-12-12T08:20:25.058Z,16.07
2018-12-12T08:25:34.473Z,15.56
2018-12-12T08:30:43.596Z,18.50
2018-12-12T08:35:51.500Z,17.49
2018-12-12T08:41:00.576Z,15.94
2018-12-12T08:46:10.026Z,14.89
2018-12-12T08:51:19.224Z,16.12
2018-12-12T08:56:28.521Z,15.78
2018-12-12T09:01:37.652Z,15.37
2018-12-12T09:06:47.036Z,14.78
2018-12-12T09:11:56.175Z,11.84
2018-12-12T09:17:09.666Z,13.55
2018-12-12T09:22:14.201Z,13.10
2018-12-12T09:27:23.589Z,12.74
2018-12-12T09:32:32.755Z,14.58
2018-12-12T09:37:40.740Z,14.15
2018-12-12T09:42:49.971Z,15.92
2018-12-12T09:47:59.309Z,12.52
2018-12-12T09:53:08.441Z,16.22
2018-12-12T09:58:17.765Z,14.42
2018-12-12T10:03:31.121Z,17.15
2018-12-12T10:08:35.800Z,14.86
2018-12-12T10:13:44.874Z,15.58
2018-12-12T10:18:54.242Z,17.70
2018-12-12T10:24:03.454Z,16.32
2018-12-12T10:29:12.821Z,16.24
2018-12-12T10:34:21.925Z,12.99
2018-12-12T10:39:31.228Z,15.59
2018-12-12T10:44:40.379Z,13.70
2018-12-12T10:49:49.783Z,13.80
2018-12-12T10:54:58.891Z,15.44
2018-12-12T11:00:12.592Z,13.09
2018-12-12T11:05:17.150Z,11.56
2018-12-12T11:10:26.576Z,12.57
2018-12-12T11:15:35.650Z,12.93
2018-12-12T11:20:44.941Z,12.53
2018-12-12T11:25:54.124Z,13.88
2018-12-12T11:31:03.485Z,12.86
2018-12-12T11:36:12.657Z,13.54
2018-12-12T11:41:22.065Z,9.91
2018-12-12T11:46:31.250Z,11.96
2018-12-12T11:51:40.632Z,11.43
2018-12-12T11:56:49.742Z,12.00
2018-12-12T12:01:59.108Z,12.18
2018-12-12T12:07:08.264Z,9.76
2018-12-12T12:12:17.592Z,12.64
2018-12-12T12:17:26.829Z,10.85
2018-12-12T12:22:36.169Z,14.78
2018-12-12T12:27:45.305Z,10.36
2018-12-12T12:32:54.703Z,12.61
2018-12-12T12:38:03.844Z,11.65
2018-12-12T12:43:13.273Z,9.59
2018-12-12T12:48:22.348Z,10.73
2018-12-12T12:53:31.706Z,7.29
2018-12-12T12:58:40.820Z,8.45
2018-12-12T13:03:50.201Z,6.98
2018-12-12T13:08:59.337Z,7.67
2018-12-12T13:14:08.827Z,9.58
2018-12-12T13:19:17.910Z,7.52
2018-12-12T13:24:27.308Z,7.64
2018-12-12T13:29:36.520Z,7.60
2018-12-12T13:34:45.843Z,8.79
2018-12-12T13:39:54.985Z,7.89
2018-12-12T13:45:04.425Z,7.12
2018-12-12T13:50:13.614Z,6.97
2018-12-12T13:55:23.008Z,8.86
2018-12-12T14:00:32.127Z,7.86
2018-12-12T14:05:41.616Z,7.50
2018-12-12T14:10:50.873Z,10.57
2018-12-12T14:16:00.240Z,11.90
2018-12-12T14:21:09.390Z,9.42
2018-12-12T14:26:18.658Z,7.57
2018-12-12T14:31:27.944Z,8.07
2018-12-12T14:36:37.504Z,8.41
2018-12-12T14:41:46.663Z,7.91
2018-12-12T14:46:56.046Z,9.52
2018-12-12T14:52:05.219Z,7.95
2018-12-12T14:57:14.597Z,8.33
2018-12-12T15:02:23.766Z,10.28
2018-12-12T15:07:33.122Z,9.58
2018-12-12T15:12:42.356Z,10.41
2018-12-12T15:17:51.864Z,9.30
2018-12-12T15:23:00.977Z,11.76
2018-12-12T15:28:10.430Z,10.85
2018-12-12T15:33:19.558Z,11.84
2018-12-12T15:38:28.929Z,11.03
2018-12-12T15:43:38.078Z,13.66
2018-12-12T15:48:47.600Z,10.80
2018-12-12T15:53:56.718Z,10.64
2018-12-12T15:59:06.093Z,11.49
2018-12-12T16:04:15.243Z,11.27
2018-12-12T16:09:24.684Z,12.76
2018-12-12T16:14:33.831Z,11.74
2018-12-12T16:19:43.238Z,9.30
2018-12-12T16:24:52.364Z,9.65
2018-12-12T16:30:01.712Z,9.50
2018-12-12T16:35:10.886Z,9.54
2018-12-12T16:40:20.208Z,7.46
2018-12-12T16:45:29.415Z,7.69
2018-12-12T16:50:38.788Z,8.26
2018-12-12T16:55:47.892Z,10.37
2018-12-12T17:00:57.358Z,9.19
2018-12-12T17:06:06.471Z,12.97
2018-12-12T17:11:15.800Z,13.19
2018-12-12T17:16:24.951Z,12.43
2018-12-12T17:21:34.332Z,17.11
2018-12-12T17:26:44.714Z,15.25
2018-12-12T17:31:44.049Z,18.98
2018-12-12T17:36:53.221Z,16.02
2018-12-12T17:42:02.530Z,15.56
2018-12-12T17:47:11.760Z,15.46
2018-12-12T17:52:22.844Z,15.84
2018-12-12T17:57:22.016Z,17.08
2018-12-12T18:02:31.444Z,16.82
2018-12-12T18:07:40.734Z,14.02
2018-12-12T18:12:50.168Z,16.78
2018-12-12T18:17:59.750Z,16.42
2018-12-12T18:23:09.020Z,13.49
2018-12-12T18:28:18.140Z,13.71
2018-12-12T18:33:27.571Z,13.80
2018-12-12T18:38:36.661Z,14.42
2018-12-12T18:43:46.059Z,14.90
2018-12-12T18:48:55.148Z,19.87
2018-12-12T18:54:04.596Z,15.64
2018-12-12T18:59:13.721Z,15.00
2018-12-12T19:04:23.113Z,14.51
2018-12-12T19:09:32.237Z,13.41
2018-12-12T19:14:41.544Z,16.14
2018-12-12T19:19:50.721Z,14.39
2018-12-12T19:25:00.026Z,12.47
2018-12-12T19:30:09.143Z,12.94
2018-12-12T19:35:18.402Z,13.56
2018-12-12T19:40:27.502Z,15.00
2018-12-12T19:45:36.840Z,13.72
2018-12-12T19:50:46.048Z,16.18
2018-12-12T19:55:55.416Z,13.16
2018-12-12T20:01:04.522Z,12.67
2018-12-12T20:06:13.859Z,14.62
2018-12-12T20:11:23.043Z,14.34
2018-12-12T20:16:32.326Z,13.67
2018-12-12T20:21:41.549Z,13.89
2018-12-12T20:26:50.970Z,12.55
2018-12-12T20:32:00.587Z,13.15
2018-12-12T20:37:09.867Z,15.83
2018-12-12T20:42:19.019Z,13.91
2018-12-12T20:47:28.321Z,13.67
2018-12-12T20:52:37.678Z,15.43
2018-12-12T20:57:47.006Z,15.20
2018-12-12T21:02:56.090Z,17.06
2018-12-12T21:08:05.531Z,19.26
2018-12-12T21:13:14.640Z,15.28
2018-12-12T21:18:24.177Z,15.58
2018-12-12T21:23:33.286Z,17.03
2018-12-12T21:28:42.665Z,16.77
2018-12-12T21:33:51.779Z,16.71
2018-12-12T21:39:01.048Z,16.47
2018-12-12T21:44:10.180Z,17.15
2018-12-12T21:49:19.540Z,15.45
2018-12-12T21:54:28.650Z,15.72
2018-12-12T21:59:38.017Z,14.56
2018-12-12T22:04:47.104Z,15.65
2018-12-12T22:09:56.372Z,15.63
2018-12-12T22:15:05.459Z,15.93
2018-12-12T22:20:14.840Z,17.23
2018-12-12T22:25:24.018Z,16.34
2018-12-12T22:30:33.442Z,15.20
2018-12-12T22:35:42.538Z,15.57
2018-12-12T22:40:51.929Z,16.65
2018-12-12T22:46:01.026Z,18.10
2018-12-12T22:51:10.425Z,16.57
2018-12-12T22:56:19.530Z,16.29
2018-12-12T23:01:28.918Z,15.64
2018-12-12T23:06:38.081Z,17.69
2018-12-12T23:11:47.339Z,16.01
2018-12-12T23:16:56.433Z,14.99
2018-12-12T23:22:05.746Z,16.42
2018-12-12T23:27:14.833Z,15.39
2018-12-12T23:32:24.089Z,15.03
2018-12-12T23:37:33.177Z,15.92
2018-12-12T23:42:42.374Z,15.81
2018-12-12T23:47:51.489Z,17.16
2018-12-12T23:53:00.822Z,17.93
2018-12-12T23:58:09.908Z,18.20
